sensor_id;sensor_type;location;lat;lon;timestamp;pressure;altitude;pressure_sealevel;temperature;humidity
71976;BME280;68326;52.124;5.424;2024-02-14T00:00:10;101278.88;;;9.57;96.80
71976;BME280;68326;52.124;5.424;2024-02-14T00:02:44;101271.84;;;9.59;95.38
71976;BME280;68326;52.124;5.424;2024-02-14T00:05:11;101275.28;;;9.59;96.43
71976;BME280;68326;52.124;5.424;2024-02-14T00:07:38;101273.53;;;9.60;96.67
71976;BME280;68326;52.124;5.424;2024-02-14T00:10:06;101264.00;;;9.61;96.00
71976;BME280;68326;52.124;5.424;2024-02-14T00:12:33;101280.34;;;9.63;95.87
71976;BME280;68326;52.124;5.424;2024-02-14T00:15:00;101268.94;;;9.67;95.65
71976;BME280;68326;52.124;5.424;2024-02-14T00:17:27;101258.72;;;9.62;96.57
71976;BME280;68326;52.124;5.424;2024-02-14T00:19:54;101252.31;;;9.71;96.21
71976;BME280;68326;52.124;5.424;2024-02-14T00:22:20;101262.00;;;9.67;96.92
71976;BME280;68326;52.124;5.424;2024-02-14T00:24:47;101262.66;;;9.72;96.83
71976;BME280;68326;52.124;5.424;2024-02-14T00:27:13;101263.50;;;9.73;96.69
71976;BME280;68326;52.124;5.424;2024-02-14T00:29:43;101255.78;;;9.71;97.43
71976;BME280;68326;52.124;5.424;2024-02-14T00:32:14;101243.38;;;9.78;96.59
71976;BME280;68326;52.124;5.424;2024-02-14T00:34:41;101249.47;;;9.77;97.65
71976;BME280;68326;52.124;5.424;2024-02-14T00:37:08;101242.41;;;9.80;98.01
71976;BME280;68326;52.124;5.424;2024-02-14T00:39:34;101242.41;;;9.80;98.08
71976;BME280;68326;52.124;5.424;2024-02-14T00:42:01;101240.53;;;9.84;97.69
71976;BME280;68326;52.124;5.424;2024-02-14T00:44:27;101235.25;;;9.86;97.64
71976;BME280;68326;52.124;5.424;2024-02-14T00:46:57;101241.91;;;9.93;97.33
71976;BME280;68326;52.124;5.424;2024-02-14T00:49:28;101230.72;;;9.91;97.63
71976;BME280;68326;52.124;5.424;2024-02-14T00:51:55;101233.25;;;9.92;97.51
71976;BME280;68326;52.124;5.424;2024-02-14T00:54:21;101242.69;;;9.95;97.79
71976;BME280;68326;52.124;5.424;2024-02-14T00:56:48;101233.88;;;9.99;97.98
71976;BME280;68326;52.124;5.424;2024-02-14T00:59:15;101233.78;;;10.00;97.93
71976;BME280;68326;52.124;5.424;2024-02-14T01:01:43;101229.34;;;10.03;98.47
71976;BME280;68326;52.124;5.424;2024-02-14T01:04:11;101240.34;;;10.09;97.83
71976;BME280;68326;52.124;5.424;2024-02-14T01:06:38;101229.06;;;10.10;97.58
71976;BME280;68326;52.124;5.424;2024-02-14T01:09:05;101226.44;;;10.10;98.10
71976;BME280;68326;52.124;5.424;2024-02-14T01:11:31;101233.94;;;10.18;97.32
71976;BME280;68326;52.124;5.424;2024-02-14T01:13:58;101241.06;;;10.13;98.50
71976;BME280;68326;52.124;5.424;2024-02-14T01:16:25;101222.75;;;10.16;97.36
71976;BME280;68326;52.124;5.424;2024-02-14T01:18:52;101222.75;;;10.16;98.34
71976;BME280;68326;52.124;5.424;2024-02-14T01:21:19;101223.38;;;10.21;98.14
71976;BME280;68326;52.124;5.424;2024-02-14T01:23:46;101227.75;;;10.20;98.26
71976;BME280;68326;52.124;5.424;2024-02-14T01:26:12;101233.75;;;10.23;98.28
71976;BME280;68326;52.124;5.424;2024-02-14T01:28:39;101225.72;;;10.27;98.45
71976;BME280;68326;52.124;5.424;2024-02-14T01:31:05;101228.34;;;10.27;98.12
71976;BME280;68326;52.124;5.424;2024-02-14T01:33:32;101222.97;;;10.32;98.71
71976;BME280;68326;52.124;5.424;2024-02-14T01:35:59;101223.03;;;10.30;98.44
71976;BME280;68326;52.124;5.424;2024-02-14T01:38:26;101227.97;;;10.36;98.86
71976;BME280;68326;52.124;5.424;2024-02-14T01:40:52;101224.56;;;10.34;99.02
71976;BME280;68326;52.124;5.424;2024-02-14T01:43:19;101222.91;;;10.33;99.49
71976;BME280;68326;52.124;5.424;2024-02-14T01:45:47;101220.09;;;10.38;99.41
71976;BME280;68326;52.124;5.424;2024-02-14T01:48:14;101228.75;;;10.38;98.74
71976;BME280;68326;52.124;5.424;2024-02-14T01:50:45;101220.88;;;10.40;99.49
71976;BME280;68326;52.124;5.424;2024-02-14T01:53:12;101219.94;;;10.41;98.63
71976;BME280;68326;52.124;5.424;2024-02-14T01:55:39;101220.66;;;10.45;98.75
71976;BME280;68326;52.124;5.424;2024-02-14T01:58:06;101216.44;;;10.42;99.75
71976;BME280;68326;52.124;5.424;2024-02-14T02:00:34;101224.00;;;10.48;99.21
71976;BME280;68326;52.124;5.424;2024-02-14T02:03:02;101222.44;;;10.44;99.49
71976;BME280;68326;52.124;5.424;2024-02-14T02:05:29;101216.13;;;10.50;99.15
71976;BME280;68326;52.124;5.424;2024-02-14T02:07:55;101223.00;;;10.51;99.45
71976;BME280;68326;52.124;5.424;2024-02-14T02:10:22;101229.72;;;10.56;98.76
71976;BME280;68326;52.124;5.424;2024-02-14T02:12:59;101227.88;;;10.58;99.56
71976;BME280;68326;52.124;5.424;2024-02-14T02:15:26;101233.97;;;10.57;99.50
71976;BME280;68326;52.124;5.424;2024-02-14T02:17:55;101232.38;;;10.55;99.18
71976;BME280;68326;52.124;5.424;2024-02-14T02:20:22;101231.38;;;10.57;99.65
71976;BME280;68326;52.124;5.424;2024-02-14T02:22:49;101220.75;;;10.62;99.94
71976;BME280;68326;52.124;5.424;2024-02-14T02:25:15;101235.22;;;10.69;99.21
71976;BME280;68326;52.124;5.424;2024-02-14T02:27:42;101236.94;;;10.69;99.65
71976;BME280;68326;52.124;5.424;2024-02-14T02:30:09;101222.09;;;10.71;99.33
71976;BME280;68326;52.124;5.424;2024-02-14T02:32:36;101230.97;;;10.67;100.00
71976;BME280;68326;52.124;5.424;2024-02-14T02:35:04;101236.94;;;10.69;100.00
71976;BME280;68326;52.124;5.424;2024-02-14T02:37:31;101240.97;;;10.76;99.53
71976;BME280;68326;52.124;5.424;2024-02-14T02:39:58;101240.94;;;10.77;100.00
71976;BME280;68326;52.124;5.424;2024-02-14T02:42:24;101234.84;;;10.77;100.00
71976;BME280;68326;52.124;5.424;2024-02-14T02:44:51;101235.63;;;10.79;100.00
71976;BME280;68326;52.124;5.424;2024-02-14T02:47:17;101247.59;;;10.83;100.00
71976;BME280;68326;52.124;5.424;2024-02-14T02:49:44;101240.94;;;10.77;100.00
71976;BME280;68326;52.124;5.424;2024-02-14T02:52:11;101239.78;;;10.83;100.00
71976;BME280;68326;52.124;5.424;2024-02-14T02:54:38;101237.13;;;10.85;99.73
71976;BME280;68326;52.124;5.424;2024-02-14T02:57:07;101241.59;;;10.81;99.97
71976;BME280;68326;52.124;5.424;2024-02-14T02:59:35;101238.94;;;10.82;100.00
71976;BME280;68326;52.124;5.424;2024-02-14T03:02:02;101238.88;;;10.84;100.00
71976;BME280;68326;52.124;5.424;2024-02-14T03:04:29;101243.22;;;10.84;100.00
71976;BME280;68326;52.124;5.424;2024-02-14T03:07:17;101241.28;;;10.89;100.00
71976;BME280;68326;52.124;5.424;2024-02-14T03:09:44;101250.69;;;10.91;100.00
71976;BME280;68326;52.124;5.424;2024-02-14T03:12:10;101247.19;;;10.92;100.00
71976;BME280;68326;52.124;5.424;2024-02-14T03:14:37;101241.13;;;10.92;100.00
71976;BME280;68326;52.124;5.424;2024-02-14T03:17:05;101249.72;;;10.94;100.00
71976;BME280;68326;52.124;5.424;2024-02-14T03:19:35;101248.88;;;10.93;100.00
71976;BME280;68326;52.124;5.424;2024-02-14T03:22:05;101251.41;;;10.95;100.00
71976;BME280;68326;52.124;5.424;2024-02-14T03:24:35;101251.03;;;11.02;100.00
71976;BME280;68326;52.124;5.424;2024-02-14T03:27:04;101262.25;;;11.05;100.00
71976;BME280;68326;52.124;5.424;2024-02-14T03:29:31;101264.94;;;11.03;100.00
71976;BME280;68326;52.124;5.424;2024-02-14T03:31:59;101256.34;;;11.01;100.00
71976;BME280;68326;52.124;5.424;2024-02-14T03:34:31;101265.00;;;11.01;100.00
71976;BME280;68326;52.124;5.424;2024-02-14T03:37:00;101255.97;;;11.09;100.00
71976;BME280;68326;52.124;5.424;2024-02-14T03:39:29;101257.47;;;11.14;100.00
71976;BME280;68326;52.124;5.424;2024-02-14T03:41:56;101263.66;;;11.12;100.00
71976;BME280;68326;52.124;5.424;2024-02-14T03:44:23;101264.50;;;11.12;100.00
71976;BME280;68326;52.124;5.424;2024-02-14T03:46:49;101258.03;;;11.21;100.00
71976;BME280;68326;52.124;5.424;2024-02-14T03:49:16;101265.78;;;11.22;100.00
71976;BME280;68326;52.124;5.424;2024-02-14T03:51:43;101270.78;;;11.27;100.00
71976;BME280;68326;52.124;5.424;2024-02-14T03:54:10;101266.41;;;11.28;100.00
71976;BME280;68326;52.124;5.424;2024-02-14T03:56:38;101264.84;;;11.23;100.00
71976;BME280;68326;52.124;5.424;2024-02-14T03:59:05;101262.78;;;11.30;100.00
71976;BME280;68326;52.124;5.424;2024-02-14T04:01:32;101267.81;;;11.35;100.00
71976;BME280;68326;52.124;5.424;2024-02-14T04:03:59;101272.31;;;11.31;100.00
71976;BME280;68326;52.124;5.424;2024-02-14T04:06:26;101270.34;;;11.36;100.00
71976;BME280;68326;52.124;5.424;2024-02-14T04:08:53;101270.22;;;11.39;100.00
71976;BME280;68326;52.124;5.424;2024-02-14T04:11:20;101272.66;;;11.42;100.00
71976;BME280;68326;52.124;5.424;2024-02-14T04:13:46;101276.88;;;11.45;100.00
71976;BME280;68326;52.124;5.424;2024-02-14T04:16:13;101280.13;;;11.50;100.00
71976;BME280;68326;52.124;5.424;2024-02-14T04:18:39;101281.13;;;11.48;100.00
71976;BME280;68326;52.124;5.424;2024-02-14T04:21:09;101288.63;;;11.54;100.00
71976;BME280;68326;52.124;5.424;2024-02-14T04:23:36;101286.94;;;11.53;100.00
71976;BME280;68326;52.124;5.424;2024-02-14T04:26:02;101295.38;;;11.58;100.00
71976;BME280;68326;52.124;5.424;2024-02-14T04:28:29;101285.94;;;11.55;100.00
71976;BME280;68326;52.124;5.424;2024-02-14T04:30:56;101294.47;;;11.59;100.00
71976;BME280;68326;52.124;5.424;2024-02-14T04:33:23;101298.69;;;11.61;100.00
71976;BME280;68326;52.124;5.424;2024-02-14T04:35:49;101298.13;;;11.55;100.00
71976;BME280;68326;52.124;5.424;2024-02-14T04:38:17;101304.84;;;11.60;100.00
71976;BME280;68326;52.124;5.424;2024-02-14T04:40:46;101302.13;;;11.62;100.00
71976;BME280;68326;52.124;5.424;2024-02-14T04:43:12;101303.00;;;11.62;100.00
71976;BME280;68326;52.124;5.424;2024-02-14T04:45:39;101309.06;;;11.63;100.00
71976;BME280;68326;52.124;5.424;2024-02-14T04:48:05;101301.31;;;11.61;100.00
71976;BME280;68326;52.124;5.424;2024-02-14T04:50:34;101302.84;;;11.66;100.00
71976;BME280;68326;52.124;5.424;2024-02-14T04:53:01;101302.78;;;11.67;100.00
71976;BME280;68326;52.124;5.424;2024-02-14T04:55:27;101313.28;;;11.66;100.00
71976;BME280;68326;52.124;5.424;2024-02-14T04:57:55;101317.38;;;11.71;100.00
71976;BME280;68326;52.124;5.424;2024-02-14T05:00:22;101317.44;;;11.70;100.00
71976;BME280;68326;52.124;5.424;2024-02-14T05:02:49;101319.97;;;11.71;100.00
71976;BME280;68326;52.124;5.424;2024-02-14T05:05:16;101322.47;;;11.73;100.00
71976;BME280;68326;52.124;5.424;2024-02-14T05:07:42;101331.22;;;11.72;100.00
71976;BME280;68326;52.124;5.424;2024-02-14T05:10:09;101324.25;;;11.72;100.00
71976;BME280;68326;52.124;5.424;2024-02-14T05:12:36;101325.09;;;11.73;100.00
71976;BME280;68326;52.124;5.424;2024-02-14T05:15:03;101334.56;;;11.75;100.00
71976;BME280;68326;52.124;5.424;2024-02-14T05:17:30;101326.03;;;11.72;100.00
71976;BME280;68326;52.124;5.424;2024-02-14T05:19:57;101338.28;;;11.70;100.00
71976;BME280;68326;52.124;5.424;2024-02-14T05:22:24;101333.91;;;11.70;100.00
71976;BME280;68326;52.124;5.424;2024-02-14T05:24:50;101339.00;;;11.73;100.00
71976;BME280;68326;52.124;5.424;2024-02-14T05:27:17;101344.97;;;11.75;100.00
71976;BME280;68326;52.124;5.424;2024-02-14T05:29:44;101344.03;;;11.76;100.00
71976;BME280;68326;52.124;5.424;2024-02-14T05:32:10;101341.66;;;11.72;100.00
71976;BME280;68326;52.124;5.424;2024-02-14T05:34:37;101344.97;;;11.75;100.00
71976;BME280;68326;52.124;5.424;2024-02-14T05:37:03;101345.94;;;11.73;100.00
71976;BME280;68326;52.124;5.424;2024-02-14T05:39:32;101347.72;;;11.72;100.00
71976;BME280;68326;52.124;5.424;2024-02-14T05:41:58;101351.09;;;11.74;100.00
71976;BME280;68326;52.124;5.424;2024-02-14T05:44:25;101356.19;;;11.77;100.00
71976;BME280;68326;52.124;5.424;2024-02-14T05:46:53;101349.25;;;11.76;100.00
71976;BME280;68326;52.124;5.424;2024-02-14T05:49:20;101347.66;;;11.74;100.00
71976;BME280;68326;52.124;5.424;2024-02-14T05:51:47;101348.44;;;11.76;100.00
71976;BME280;68326;52.124;5.424;2024-02-14T05:54:14;101346.94;;;11.70;100.00
71976;BME280;68326;52.124;5.424;2024-02-14T05:56:41;101354.75;;;11.70;100.00
71976;BME280;68326;52.124;5.424;2024-02-14T05:59:08;101351.16;;;11.73;100.00
71976;BME280;68326;52.124;5.424;2024-02-14T06:01:36;101353.88;;;11.71;100.00
71976;BME280;68326;52.124;5.424;2024-02-14T06:04:02;101354.75;;;11.70;100.00
71976;BME280;68326;52.124;5.424;2024-02-14T06:06:29;101349.59;;;11.69;100.00
71976;BME280;68326;52.124;5.424;2024-02-14T06:08:56;101356.53;;;11.70;100.00
71976;BME280;68326;52.124;5.424;2024-02-14T06:11:24;101354.53;;;11.75;100.00
71976;BME280;68326;52.124;5.424;2024-02-14T06:13:50;101362.38;;;11.75;100.00
71976;BME280;68326;52.124;5.424;2024-02-14T06:16:17;101371.19;;;11.72;100.00
71976;BME280;68326;52.124;5.424;2024-02-14T06:18:45;101367.75;;;11.72;100.00
71976;BME280;68326;52.124;5.424;2024-02-14T06:21:12;101379.16;;;11.69;100.00
71976;BME280;68326;52.124;5.424;2024-02-14T06:23:38;101376.47;;;11.71;100.00
71976;BME280;68326;52.124;5.424;2024-02-14T06:26:05;101379.16;;;11.69;100.00
71976;BME280;68326;52.124;5.424;2024-02-14T06:28:33;101376.69;;;11.66;100.00
71976;BME280;68326;52.124;5.424;2024-02-14T06:30:59;101388.59;;;11.72;100.00
71976;BME280;68326;52.124;5.424;2024-02-14T06:33:27;101390.56;;;11.67;100.00
71976;BME280;68326;52.124;5.424;2024-02-14T06:35:55;101388.53;;;11.73;100.00
71976;BME280;68326;52.124;5.424;2024-02-14T06:38:21;101393.75;;;11.73;100.00
71976;BME280;68326;52.124;5.424;2024-02-14T06:40:49;101401.63;;;11.72;100.00
71976;BME280;68326;52.124;5.424;2024-02-14T06:43:15;101392.19;;;11.69;100.00
71976;BME280;68326;52.124;5.424;2024-02-14T06:45:42;101405.22;;;11.69;100.00
71976;BME280;68326;52.124;5.424;2024-02-14T06:48:09;101410.28;;;11.72;100.00
71976;BME280;68326;52.124;5.424;2024-02-14T06:50:36;101406.78;;;11.73;100.00
71976;BME280;68326;52.124;5.424;2024-02-14T06:53:03;101411.91;;;11.75;100.00
71976;BME280;68326;52.124;5.424;2024-02-14T06:55:30;101402.47;;;11.72;100.00
71976;BME280;68326;52.124;5.424;2024-02-14T06:57:59;101402.19;;;11.78;100.00
71976;BME280;68326;52.124;5.424;2024-02-14T07:00:26;101406.41;;;11.81;100.00
71976;BME280;68326;52.124;5.424;2024-02-14T07:02:52;101407.56;;;11.75;100.00
71976;BME280;68326;52.124;5.424;2024-02-14T07:05:19;101407.47;;;11.77;100.00
71976;BME280;68326;52.124;5.424;2024-02-14T07:07:45;101414.31;;;11.79;100.00
71976;BME280;68326;52.124;5.424;2024-02-14T07:10:12;101406.41;;;11.81;100.00
71976;BME280;68326;52.124;5.424;2024-02-14T07:12:38;101417.56;;;11.84;100.00
71976;BME280;68326;52.124;5.424;2024-02-14T07:15:05;101424.59;;;11.82;100.00
71976;BME280;68326;52.124;5.424;2024-02-14T07:17:32;101421.94;;;11.84;100.00
71976;BME280;68326;52.124;5.424;2024-02-14T07:20:00;101417.50;;;11.86;100.00
71976;BME280;68326;52.124;5.424;2024-02-14T07:22:27;101430.53;;;11.86;100.00
71976;BME280;68326;52.124;5.424;2024-02-14T07:24:53;101429.81;;;11.82;100.00
71976;BME280;68326;52.124;5.424;2024-02-14T07:27:20;101429.56;;;11.89;100.00
71976;BME280;68326;52.124;5.424;2024-02-14T07:29:47;101426.13;;;11.88;100.00
71976;BME280;68326;52.124;5.424;2024-02-14T07:32:14;101421.16;;;11.82;100.00
71976;BME280;68326;52.124;5.424;2024-02-14T07:34:41;101429.66;;;11.86;100.00
71976;BME280;68326;52.124;5.424;2024-02-14T07:37:08;101422.69;;;11.86;100.00
71976;BME280;68326;52.124;5.424;2024-02-14T07:39:34;101417.38;;;11.89;100.00
71976;BME280;68326;52.124;5.424;2024-02-14T07:42:02;101425.13;;;11.91;100.00
71976;BME280;68326;52.124;5.424;2024-02-14T07:44:29;101433.94;;;11.88;100.00
71976;BME280;68326;52.124;5.424;2024-02-14T07:46:55;101432.16;;;11.89;100.00
71976;BME280;68326;52.124;5.424;2024-02-14T07:49:26;101432.13;;;11.90;100.00
71976;BME280;68326;52.124;5.424;2024-02-14T07:51:53;101430.19;;;11.94;100.00
71976;BME280;68326;52.124;5.424;2024-02-14T07:54:19;101435.34;;;11.95;100.00
71976;BME280;68326;52.124;5.424;2024-02-14T07:56:46;101437.00;;;11.96;100.00
71976;BME280;68326;52.124;5.424;2024-02-14T07:59:12;101438.66;;;11.99;100.00
71976;BME280;68326;52.124;5.424;2024-02-14T08:01:39;101435.19;;;11.98;100.00
71976;BME280;68326;52.124;5.424;2024-02-14T08:04:06;101442.22;;;11.96;100.00
71976;BME280;68326;52.124;5.424;2024-02-14T08:06:32;101438.66;;;11.99;100.00
71976;BME280;68326;52.124;5.424;2024-02-14T08:09:00;101450.91;;;11.97;100.00
71976;BME280;68326;52.124;5.424;2024-02-14T08:11:29;101446.47;;;11.99;100.00
71976;BME280;68326;52.124;5.424;2024-02-14T08:13:56;101448.03;;;12.03;100.00
71976;BME280;68326;52.124;5.424;2024-02-14T08:16:22;101462.91;;;12.01;100.00
71976;BME280;68326;52.124;5.424;2024-02-14T08:18:49;101450.72;;;12.01;100.00
71976;BME280;68326;52.124;5.424;2024-02-14T08:21:17;101452.25;;;12.06;100.00
71976;BME280;68326;52.124;5.424;2024-02-14T08:23:44;101458.38;;;12.04;100.00
71976;BME280;68326;52.124;5.424;2024-02-14T08:26:11;101447.94;;;12.04;100.00
71976;BME280;68326;52.124;5.424;2024-02-14T08:28:37;101455.00;;;12.02;100.00
71976;BME280;68326;52.124;5.424;2024-02-14T08:31:11;101449.50;;;12.09;100.00
71976;BME280;68326;52.124;5.424;2024-02-14T08:33:38;101452.97;;;12.09;100.00
71976;BME280;68326;52.124;5.424;2024-02-14T08:36:06;101456.41;;;12.10;100.00
71976;BME280;68326;52.124;5.424;2024-02-14T08:38:33;101449.38;;;12.12;100.00
71976;BME280;68326;52.124;5.424;2024-02-14T08:41:02;101459.41;;;12.19;100.00
71976;BME280;68326;52.124;5.424;2024-02-14T08:43:29;101466.69;;;12.13;100.00
71976;BME280;68326;52.124;5.424;2024-02-14T08:45:56;101463.97;;;12.16;100.00
71976;BME280;68326;52.124;5.424;2024-02-14T08:48:23;101453.34;;;12.19;100.00
71976;BME280;68326;52.124;5.424;2024-02-14T08:50:50;101474.22;;;12.19;100.00
71976;BME280;68326;52.124;5.424;2024-02-14T08:53:16;101464.44;;;12.24;100.00
71976;BME280;68326;52.124;5.424;2024-02-14T08:55:43;101466.34;;;12.20;100.00
71976;BME280;68326;52.124;5.424;2024-02-14T08:58:10;101468.72;;;12.25;100.00
71976;BME280;68326;52.124;5.424;2024-02-14T09:00:36;101462.66;;;12.24;100.00
71976;BME280;68326;52.124;5.424;2024-02-14T09:03:04;101470.22;;;12.31;100.00
71976;BME280;68326;52.124;5.424;2024-02-14T09:05:31;101468.66;;;12.27;100.00
71976;BME280;68326;52.124;5.424;2024-02-14T09:07:59;101469.56;;;12.26;100.00
71976;BME280;68326;52.124;5.424;2024-02-14T09:10:26;101468.00;;;12.21;100.00
71976;BME280;68326;52.124;5.424;2024-02-14T09:12:53;101468.88;;;12.22;100.00
71976;BME280;68326;52.124;5.424;2024-02-14T09:15:19;101472.34;;;12.22;100.00
71976;BME280;68326;52.124;5.424;2024-02-14T09:17:47;101477.56;;;12.22;100.00
71976;BME280;68326;52.124;5.424;2024-02-14T09:20:14;101483.06;;;12.16;100.00
71976;BME280;68326;52.124;5.424;2024-02-14T09:22:41;101488.84;;;12.23;100.00
71976;BME280;68326;52.124;5.424;2024-02-14T09:25:08;101486.00;;;12.28;100.00
71976;BME280;68326;52.124;5.424;2024-02-14T09:27:37;101489.75;;;12.22;100.00
71976;BME280;68326;52.124;5.424;2024-02-14T09:30:04;101498.50;;;12.21;100.00
71976;BME280;68326;52.124;5.424;2024-02-14T09:32:33;101490.72;;;12.19;100.00
71976;BME280;68326;52.124;5.424;2024-02-14T09:34:59;101491.50;;;12.21;100.00
71976;BME280;68326;52.124;5.424;2024-02-14T09:37:27;101499.28;;;12.23;100.00
71976;BME280;68326;52.124;5.424;2024-02-14T09:39:54;101487.94;;;12.24;100.00
71976;BME280;68326;52.124;5.424;2024-02-14T09:42:28;101494.81;;;12.25;100.00
71976;BME280;68326;52.124;5.424;2024-02-14T09:44:59;101490.53;;;12.24;100.00
71976;BME280;68326;52.124;5.424;2024-02-14T09:47:30;101490.31;;;12.29;100.00
71976;BME280;68326;52.124;5.424;2024-02-14T09:50:01;101485.09;;;12.29;100.00
71976;BME280;68326;52.124;5.424;2024-02-14T09:52:32;101490.22;;;12.30;100.00
71976;BME280;68326;52.124;5.424;2024-02-14T09:55:00;101498.50;;;12.21;100.00
71976;BME280;68326;52.124;5.424;2024-02-14T09:57:29;101506.03;;;12.27;100.00
71976;BME280;68326;52.124;5.424;2024-02-14T09:59:56;101503.38;;;12.29;100.00
71976;BME280;68326;52.124;5.424;2024-02-14T10:02:23;101500.03;;;12.25;100.00
71976;BME280;68326;52.124;5.424;2024-02-14T10:04:49;101506.66;;;12.32;100.00
71976;BME280;68326;52.124;5.424;2024-02-14T10:07:16;101503.16;;;12.33;100.00
71976;BME280;68326;52.124;5.424;2024-02-14T10:09:43;101501.31;;;12.35;100.00
71976;BME280;68326;52.124;5.424;2024-02-14T10:12:09;101499.53;;;12.36;100.00
71976;BME280;68326;52.124;5.424;2024-02-14T10:14:36;101504.75;;;12.36;100.00
71976;BME280;68326;52.124;5.424;2024-02-14T10:17:04;101499.53;;;12.36;100.00
71976;BME280;68326;52.124;5.424;2024-02-14T10:19:30;101498.63;;;12.37;100.00
71976;BME280;68326;52.124;5.424;2024-02-14T10:21:58;101508.13;;;12.38;100.00
71976;BME280;68326;52.124;5.424;2024-02-14T10:24:26;101509.91;;;12.37;100.00
71976;BME280;68326;52.124;5.424;2024-02-14T10:26:53;101511.59;;;12.38;100.00
71976;BME280;68326;52.124;5.424;2024-02-14T10:29:20;101513.41;;;12.36;100.00
71976;BME280;68326;52.124;5.424;2024-02-14T10:31:47;101510.59;;;12.41;100.00
71976;BME280;68326;52.124;5.424;2024-02-14T10:34:14;101516.59;;;12.43;100.00
71976;BME280;68326;52.124;5.424;2024-02-14T10:36:44;101517.34;;;12.45;100.00
71976;BME280;68326;52.124;5.424;2024-02-14T10:39:11;101512.78;;;12.50;100.00
71976;BME280;68326;52.124;5.424;2024-02-14T10:41:38;101506.72;;;12.50;100.00
71976;BME280;68326;52.124;5.424;2024-02-14T10:44:04;101521.44;;;12.51;100.00
71976;BME280;68326;52.124;5.424;2024-02-14T10:46:37;101526.31;;;12.58;100.00
71976;BME280;68326;52.124;5.424;2024-02-14T10:49:04;101521.44;;;12.51;100.00
71976;BME280;68326;52.124;5.424;2024-02-14T10:51:33;101515.16;;;12.55;100.00
71976;BME280;68326;52.124;5.424;2024-02-14T10:54:10;101521.78;;;12.62;100.00
71976;BME280;68326;52.124;5.424;2024-02-14T10:56:40;101526.88;;;12.65;100.00
71976;BME280;68326;52.124;5.424;2024-02-14T10:59:08;101519.16;;;12.62;100.00
71976;BME280;68326;52.124;5.424;2024-02-14T11:01:36;101531.03;;;12.69;100.00
71976;BME280;68326;52.124;5.424;2024-02-14T11:04:04;101526.56;;;12.71;100.00
71976;BME280;68326;52.124;5.424;2024-02-14T11:06:31;101527.63;;;12.67;100.00
71976;BME280;68326;52.124;5.424;2024-02-14T11:09:02;101522.19;;;12.72;100.00
71976;BME280;68326;52.124;5.424;2024-02-14T11:11:34;101519.50;;;12.73;100.00
71976;BME280;68326;52.124;5.424;2024-02-14T11:14:00;101507.34;;;12.72;100.00
71976;BME280;68326;52.124;5.424;2024-02-14T11:16:28;101506.16;;;12.79;100.00
71976;BME280;68326;52.124;5.424;2024-02-14T11:19:12;101508.84;;;12.78;100.00
71976;BME280;68326;52.124;5.424;2024-02-14T11:21:40;101508.00;;;12.77;100.00
71976;BME280;68326;52.124;5.424;2024-02-14T11:24:14;101512.28;;;12.78;100.00
71976;BME280;68326;52.124;5.424;2024-02-14T11:26:48;101509.31;;;12.86;100.00
71976;BME280;68326;52.124;5.424;2024-02-14T11:29:16;101501.59;;;12.83;100.00
71976;BME280;68326;52.124;5.424;2024-02-14T11:31:48;101497.94;;;12.87;100.00
71976;BME280;68326;52.124;5.424;2024-02-14T11:34:15;101493.88;;;12.81;100.00
71976;BME280;68326;52.124;5.424;2024-02-14T11:36:42;101498.16;;;12.82;100.00
71976;BME280;68326;52.124;5.424;2024-02-14T11:39:09;101498.88;;;12.86;100.00
71976;BME280;68326;52.124;5.424;2024-02-14T11:41:36;101499.00;;;12.83;100.00
71976;BME280;68326;52.124;5.424;2024-02-14T11:44:04;101491.16;;;12.83;100.00
71976;BME280;68326;52.124;5.424;2024-02-14T11:46:34;101496.16;;;12.88;100.00
71976;BME280;68326;52.124;5.424;2024-02-14T11:49:03;101498.56;;;12.92;100.00
71976;BME280;68326;52.124;5.424;2024-02-14T11:51:32;101490.88;;;12.89;100.00
71976;BME280;68326;52.124;5.424;2024-02-14T11:53:59;101489.97;;;12.90;100.00
71976;BME280;68326;52.124;5.424;2024-02-14T11:56:35;101494.88;;;12.96;100.00
71976;BME280;68326;52.124;5.424;2024-02-14T11:59:03;101492.25;;;12.96;100.00
71976;BME280;68326;52.124;5.424;2024-02-14T12:01:31;101494.78;;;12.98;100.00
71976;BME280;68326;52.124;5.424;2024-02-14T12:03:59;101498.94;;;13.02;100.00
71976;BME280;68326;52.124;5.424;2024-02-14T12:06:33;101490.78;;;13.08;100.00
71976;BME280;68326;52.124;5.424;2024-02-14T12:09:05;101491.09;;;13.02;100.00
71976;BME280;68326;52.124;5.424;2024-02-14T12:11:32;101488.25;;;13.06;100.00
71976;BME280;68326;52.124;5.424;2024-02-14T12:14:04;101492.56;;;13.08;100.00
71976;BME280;68326;52.124;5.424;2024-02-14T12:16:31;101485.56;;;13.08;100.00
71976;BME280;68326;52.124;5.424;2024-02-14T12:19:22;101493.16;;;13.13;100.00
71976;BME280;68326;52.124;5.424;2024-02-14T12:21:50;101490.03;;;13.06;100.00
71976;BME280;68326;52.124;5.424;2024-02-14T12:24:16;101493.41;;;13.08;100.00
71976;BME280;68326;52.124;5.424;2024-02-14T12:26:43;101488.19;;;13.08;100.00
71976;BME280;68326;52.124;5.424;2024-02-14T12:29:13;101491.72;;;13.07;100.00
71976;BME280;68326;52.124;5.424;2024-02-14T12:31:40;101489.94;;;13.08;100.00
71976;BME280;68326;52.124;5.424;2024-02-14T12:34:10;101486.41;;;13.09;100.00
71976;BME280;68326;52.124;5.424;2024-02-14T12:36:37;101491.63;;;13.09;100.00
71976;BME280;68326;52.124;5.424;2024-02-14T12:39:04;101494.25;;;13.09;100.00
71976;BME280;68326;52.124;5.424;2024-02-14T12:41:31;101482.81;;;13.11;100.00
71976;BME280;68326;52.124;5.424;2024-02-14T12:43:59;101480.34;;;13.08;100.00